createdAt,value
2023-11-10T00:00:33.702Z,68.66
2023-11-10T00:03:56.914Z,68.27
2023-11-10T00:06:59.967Z,68.19
2023-11-10T00:10:05.305Z,68.81
2023-11-10T00:13:09.510Z,69.37
2023-11-10T00:16:12.736Z,68.74
2023-11-10T00:19:15.990Z,69.06
2023-11-10T00:22:19.079Z,69.62
2023-11-10T00:25:22.217Z,69.36
2023-11-10T00:28:25.434Z,69.48
2023-11-10T00:31:43.224Z,69.53
2023-11-10T00:34:51.177Z,70.01
2023-11-10T00:37:54.386Z,69.44
2023-11-10T00:40:57.476Z,68.98
2023-11-10T00:44:00.636Z,69.47
2023-11-10T00:47:04.206Z,69.54
2023-11-10T00:50:07.909Z,70.28
2023-11-10T00:53:10.870Z,70.62
2023-11-10T00:56:13.910Z,70.72
2023-11-10T00:59:19.654Z,70.45
2023-11-10T01:02:22.734Z,70.54
2023-11-10T01:05:26.369Z,70.53
2023-11-10T01:08:29.515Z,69.69
2023-11-10T01:11:34.029Z,70.20
2023-11-10T01:14:37.310Z,70.23
2023-11-10T01:17:41.829Z,70.29
2023-11-10T01:20:46.188Z,70.37
2023-11-10T01:23:51.767Z,70.45
2023-11-10T01:27:02.115Z,70.21
2023-11-10T01:30:05.781Z,70.31
2023-11-10T01:33:09.553Z,70.38
2023-11-10T01:36:12.724Z,70.46
2023-11-10T01:39:15.837Z,70.41
2023-11-10T01:42:19.464Z,70.58
2023-11-10T01:45:22.641Z,70.69
2023-11-10T01:48:26.963Z,70.66
2023-11-10T01:51:32.341Z,70.56
2023-11-10T01:54:37.079Z,70.27
2023-11-10T01:57:40.282Z,70.31
2023-11-10T02:00:43.496Z,70.37
2023-11-10T02:03:46.871Z,70.51
2023-11-10T02:06:49.901Z,70.46
2023-11-10T02:09:53.433Z,70.71
2023-11-10T02:12:57.872Z,70.97
2023-11-10T02:16:01.165Z,70.79
2023-11-10T02:19:05.183Z,70.90
2023-11-10T02:22:08.684Z,70.41
2023-11-10T02:25:17.824Z,70.90
2023-11-10T02:28:21.336Z,70.97
2023-11-10T02:31:24.236Z,70.05
2023-11-10T02:34:28.023Z,70.64
2023-11-10T02:37:30.909Z,71.12
2023-11-10T02:40:36.977Z,71.37
2023-11-10T02:43:39.942Z,71.21
2023-11-10T02:46:44.937Z,71.30
2023-11-10T02:49:47.715Z,71.29
2023-11-10T02:52:50.869Z,71.25
2023-11-10T02:55:53.447Z,71.34
2023-11-10T02:58:57.303Z,71.32
2023-11-10T03:02:00.079Z,71.35
2023-11-10T03:05:04.084Z,71.29
2023-11-10T03:08:07.263Z,71.31
2023-11-10T03:11:25.388Z,71.37
2023-11-10T03:14:31.101Z,71.43
2023-11-10T03:17:35.039Z,71.31
2023-11-10T03:20:37.732Z,70.46
2023-11-10T03:23:40.940Z,71.30
2023-11-10T03:26:43.669Z,71.29
2023-11-10T03:29:46.768Z,71.08
2023-11-10T03:32:50.249Z,71.12
2023-11-10T03:35:54.245Z,70.89
2023-11-10T03:38:56.987Z,70.73
2023-11-10T03:42:01.821Z,71.13
2023-11-10T03:45:05.349Z,71.08
2023-11-10T03:48:09.112Z,71.09
2023-11-10T03:51:12.821Z,70.89
2023-11-10T03:54:16.494Z,70.49
2023-11-10T03:57:19.283Z,70.69
2023-11-10T04:00:33.056Z,71.07
2023-11-10T04:03:43.865Z,71.01
2023-11-10T04:06:47.075Z,71.07
2023-11-10T04:09:50.346Z,70.58
2023-11-10T04:12:53.665Z,71.30
2023-11-10T04:15:58.071Z,71.18
2023-11-10T04:19:01.185Z,71.22
2023-11-10T04:22:04.302Z,71.61
2023-11-10T04:25:07.682Z,71.19
2023-11-10T04:28:13.338Z,70.83
2023-11-10T04:31:17.464Z,70.96
2023-11-10T04:34:20.808Z,71.21
2023-11-10T04:37:24.412Z,71.42
2023-11-10T04:40:29.371Z,71.40
2023-11-10T04:43:32.471Z,71.50
2023-11-10T04:46:45.369Z,71.43
2023-11-10T04:49:49.590Z,71.49
2023-11-10T04:52:53.179Z,71.51
2023-11-10T04:56:02.273Z,71.42
2023-11-10T04:59:05.387Z,71.44
2023-11-10T05:02:10.215Z,70.69
2023-11-10T05:05:14.673Z,70.85
2023-11-10T05:08:17.753Z,70.98
2023-11-10T05:11:20.776Z,70.75
2023-11-10T05:14:24.011Z,71.32
2023-11-10T05:17:26.927Z,71.10
2023-11-10T05:20:33.601Z,71.07
2023-11-10T05:23:42.129Z,70.76
2023-11-10T05:26:45.989Z,70.56
2023-11-10T05:29:48.952Z,71.01
2023-11-10T05:32:51.955Z,71.13
2023-11-10T05:35:54.931Z,71.05
2023-11-10T05:38:58.109Z,70.93
2023-11-10T05:42:01.315Z,70.85
2023-11-10T05:45:04.495Z,70.80
2023-11-10T05:48:07.585Z,70.69
2023-11-10T05:51:10.572Z,70.70
2023-11-10T05:54:15.124Z,70.85
2023-11-10T05:57:18.711Z,70.79
2023-11-10T06:00:23.656Z,70.53
2023-11-10T06:03:28.510Z,70.40
2023-11-10T06:06:31.638Z,70.47
2023-11-10T06:09:35.781Z,70.28
2023-11-10T06:12:39.359Z,69.93
2023-11-10T06:15:42.748Z,70.32
2023-11-10T06:18:47.061Z,70.08
2023-11-10T06:21:52.125Z,70.25
2023-11-10T06:24:55.136Z,70.19
2023-11-10T06:27:58.390Z,69.73
2023-11-10T06:31:01.012Z,68.97
2023-11-10T06:34:04.758Z,69.43
2023-11-10T06:37:07.502Z,69.72
2023-11-10T06:40:11.981Z,69.58
2023-11-10T06:43:14.671Z,69.02
2023-11-10T06:46:24.932Z,69.00
2023-11-10T06:49:27.851Z,68.62
2023-11-10T06:52:32.205Z,68.26
2023-11-10T06:55:35.726Z,68.49
2023-11-10T06:58:40.668Z,68.39
2023-11-10T07:01:44.120Z,68.13
2023-11-10T07:04:47.358Z,67.92
2023-11-10T07:07:52.301Z,67.56
2023-11-10T07:10:59.314Z,67.17
2023-11-10T07:14:03.916Z,67.37
2023-11-10T07:17:07.541Z,67.43
2023-11-10T07:20:16.074Z,67.03
2023-11-10T07:23:26.305Z,67.18
2023-11-10T07:26:30.019Z,66.65
2023-11-10T07:29:37.897Z,66.58
2023-11-10T07:32:40.613Z,66.09
2023-11-10T07:35:43.998Z,65.80
2023-11-10T07:38:46.744Z,65.23
2023-11-10T07:41:49.856Z,65.00
2023-11-10T07:44:52.623Z,64.79
2023-11-10T07:47:59.054Z,64.42
2023-11-10T07:51:03.435Z,64.33
2023-11-10T07:54:09.438Z,64.09
2023-11-10T07:57:12.887Z,64.26
2023-11-10T08:00:21.395Z,64.43
2023-11-10T08:03:27.411Z,64.21
2023-11-10T08:06:31.689Z,63.81
2023-11-10T08:09:36.123Z,62.85
2023-11-10T08:12:41.935Z,62.24
2023-11-10T08:15:49.304Z,61.18
2023-11-10T08:18:57.644Z,59.66
2023-11-10T08:22:03.919Z,58.59
2023-11-10T08:25:07.806Z,55.55
2023-11-10T08:28:10.821Z,53.29
2023-11-10T08:31:14.690Z,49.65
2023-11-10T08:34:18.545Z,48.83
2023-11-10T08:37:21.642Z,46.84
2023-11-10T08:40:24.704Z,46.52
2023-11-10T08:43:27.768Z,46.75
2023-11-10T08:46:31.477Z,47.71
2023-11-10T08:49:34.432Z,48.71
2023-11-10T08:52:39.911Z,47.92
2023-11-10T08:55:43.464Z,48.84
2023-11-10T08:58:46.413Z,49.44
2023-11-10T09:01:50.471Z,49.85
2023-11-10T09:04:53.597Z,50.74
2023-11-10T09:07:56.976Z,50.19
2023-11-10T09:11:00.076Z,51.14
2023-11-10T09:14:04.520Z,50.09
2023-11-10T09:17:08.546Z,49.40
2023-11-10T09:20:12.113Z,48.45
2023-11-10T09:23:17.859Z,48.72
2023-11-10T09:26:25.889Z,48.53
2023-11-10T09:29:29.180Z,48.69
2023-11-10T09:32:37.807Z,48.22
2023-11-10T09:35:43.224Z,48.20
2023-11-10T09:38:49.135Z,47.62
2023-11-10T09:41:57.889Z,48.08
2023-11-10T09:45:03.104Z,48.50
2023-11-10T09:48:09.622Z,49.27
2023-11-10T09:51:14.575Z,50.12
2023-11-10T09:54:20.948Z,50.52
2023-11-10T09:57:29.260Z,50.04
2023-11-10T10:00:34.371Z,50.42
2023-11-10T10:03:38.527Z,50.90
2023-11-10T10:06:51.687Z,51.03
2023-11-10T10:09:56.771Z,51.04
2023-11-10T10:12:59.490Z,51.31
2023-11-10T10:16:07.444Z,50.84
2023-11-10T10:19:14.906Z,50.93
2023-11-10T10:22:29.435Z,50.97
2023-11-10T10:25:58.637Z,51.05
2023-11-10T10:29:02.374Z,51.32
2023-11-10T10:32:05.096Z,51.56
2023-11-10T10:35:08.876Z,51.68
2023-11-10T10:38:15.439Z,51.85
2023-11-10T10:41:21.836Z,51.75
2023-11-10T10:44:25.047Z,50.83
2023-11-10T10:47:29.250Z,51.46
2023-11-10T10:50:34.562Z,51.73
2023-11-10T10:53:40.511Z,52.14
2023-11-10T10:56:45.786Z,52.29
2023-11-10T10:59:51.060Z,52.26
2023-11-10T11:03:00.402Z,52.28
2023-11-10T11:06:28.562Z,52.00
2023-11-10T11:09:37.351Z,52.28
2023-11-10T11:13:20.488Z,52.46
2023-11-10T11:16:38.751Z,51.72
2023-11-10T11:19:44.400Z,51.70
2023-11-10T11:22:48.648Z,51.57
2023-11-10T11:26:01.925Z,50.49
2023-11-10T11:29:08.745Z,50.08
2023-11-10T11:32:20.783Z,49.55
2023-11-10T11:35:23.773Z,49.87
2023-11-10T11:38:27.557Z,50.01
2023-11-10T11:41:31.391Z,49.88
2023-11-10T11:44:38.044Z,49.51
2023-11-10T11:47:41.636Z,49.19
2023-11-10T11:50:44.916Z,49.09
2023-11-10T11:53:47.525Z,49.36
2023-11-10T11:56:51.489Z,50.05
2023-11-10T11:59:56.384Z,50.64
2023-11-10T12:02:59.991Z,51.79
2023-11-10T12:06:05.267Z,52.51
2023-11-10T12:09:08.517Z,53.30
2023-11-10T12:12:25.462Z,54.18
2023-11-10T12:15:49.482Z,55.01
2023-11-10T12:18:57.215Z,56.32
2023-11-10T12:22:25.468Z,56.06
2023-11-10T12:25:47.346Z,56.64
2023-11-10T12:29:03.978Z,57.07
2023-11-10T12:32:09.017Z,58.23
2023-11-10T12:35:15.533Z,57.96
2023-11-10T12:38:18.517Z,58.49
2023-11-10T12:41:21.474Z,58.70
2023-11-10T12:44:25.159Z,59.03
2023-11-10T12:47:34.969Z,59.04
2023-11-10T12:50:38.298Z,58.97
2023-11-10T12:53:41.934Z,59.67
2023-11-10T12:56:45.124Z,59.94
2023-11-10T12:59:48.023Z,59.40
2023-11-10T13:02:51.047Z,59.24
2023-11-10T13:05:56.465Z,58.86
2023-11-10T13:09:00.565Z,58.67
2023-11-10T13:12:07.317Z,58.33
2023-11-10T13:15:10.691Z,58.67
2023-11-10T13:18:16.439Z,59.61
2023-11-10T13:21:23.485Z,60.17
2023-11-10T13:24:27.656Z,60.93
2023-11-10T13:27:31.917Z,60.81
2023-11-10T13:30:37.437Z,60.84
2023-11-10T13:33:43.830Z,61.37
2023-11-10T13:36:48.507Z,62.15
2023-11-10T13:39:53.781Z,62.44
2023-11-10T13:42:59.267Z,62.98
2023-11-10T13:46:02.516Z,62.94
2023-11-10T13:49:07.002Z,62.94
2023-11-10T13:52:12.696Z,63.04
2023-11-10T13:55:15.757Z,63.17
2023-11-10T13:58:18.733Z,63.18
2023-11-10T14:01:21.818Z,63.44
2023-11-10T14:04:26.027Z,63.77
2023-11-10T14:07:29.045Z,63.85
2023-11-10T14:10:32.114Z,63.89
2023-11-10T14:13:39.187Z,63.91
2023-11-10T14:16:42.359Z,64.09
2023-11-10T14:19:45.286Z,64.30
2023-11-10T14:22:48.277Z,64.84
2023-11-10T14:25:51.576Z,64.86
2023-11-10T14:28:54.979Z,64.87
2023-11-10T14:32:00.187Z,64.84
2023-11-10T14:35:04.398Z,64.85
2023-11-10T14:38:09.465Z,65.00
2023-11-10T14:41:12.541Z,65.13
2023-11-10T14:44:16.033Z,64.86
2023-11-10T14:47:20.850Z,65.07
2023-11-10T14:50:50.262Z,65.42
2023-11-10T14:53:53.257Z,66.21
2023-11-10T14:56:56.200Z,65.51
2023-11-10T14:59:59.185Z,65.99
2023-11-10T15:03:05.311Z,66.72
2023-11-10T15:06:09.181Z,67.34
2023-11-10T15:09:13.680Z,67.69
2023-11-10T15:12:16.715Z,66.98
2023-11-10T15:15:19.876Z,67.87
2023-11-10T15:18:25.074Z,68.07
2023-11-10T15:21:28.591Z,68.34
2023-11-10T15:24:32.546Z,68.82
2023-11-10T15:27:35.945Z,68.64
2023-11-10T15:30:39.528Z,69.53
2023-11-10T15:33:42.570Z,70.13
2023-11-10T15:36:56.115Z,70.53
2023-11-10T15:40:00.846Z,70.69
2023-11-10T15:43:07.145Z,71.16
2023-11-10T15:46:10.244Z,70.87
2023-11-10T15:49:15.603Z,71.30
2023-11-10T15:52:19.603Z,71.69
2023-11-10T15:55:22.864Z,71.82
2023-11-10T15:58:25.813Z,72.02
2023-11-10T16:01:28.932Z,72.73
2023-11-10T16:04:32.408Z,72.96
2023-11-10T16:07:36.056Z,73.51
2023-11-10T16:10:39.705Z,73.95
2023-11-10T16:13:42.903Z,74.20
2023-11-10T16:16:46.111Z,74.37
2023-11-10T16:19:48.878Z,74.40
2023-11-10T16:22:51.954Z,74.55
2023-11-10T16:25:55.244Z,73.99
2023-11-10T16:29:06.807Z,74.56
2023-11-10T16:32:10.050Z,75.43
2023-11-10T16:35:13.534Z,76.04
2023-11-10T16:38:18.638Z,76.43
2023-11-10T16:41:27.489Z,76.45
2023-11-10T16:44:30.190Z,76.89
2023-11-10T16:47:33.890Z,77.48
2023-11-10T16:50:37.365Z,77.93
2023-11-10T16:53:40.598Z,78.04
2023-11-10T16:56:43.302Z,78.40
2023-11-10T16:59:46.974Z,78.62
2023-11-10T17:02:52.495Z,78.82
2023-11-10T17:05:59.080Z,78.24
2023-11-10T17:09:02.012Z,78.31
2023-11-10T17:12:07.977Z,78.54
2023-11-10T17:15:12.304Z,78.54
2023-11-10T17:18:18.303Z,78.96
2023-11-10T17:21:21.317Z,78.95
2023-11-10T17:24:25.472Z,79.36
2023-11-10T17:27:28.424Z,79.71
2023-11-10T17:30:31.655Z,79.42
2023-11-10T17:33:40.280Z,80.08
2023-11-10T17:36:49.525Z,79.99
2023-11-10T17:39:53.986Z,80.39
2023-11-10T17:42:57.354Z,80.76
2023-11-10T17:46:00.314Z,80.43
2023-11-10T17:49:04.099Z,80.51
2023-11-10T17:52:07.538Z,81.03
2023-11-10T17:55:14.249Z,81.32
2023-11-10T17:58:24.055Z,81.48
2023-11-10T18:01:28.621Z,81.72
2023-11-10T18:05:55.842Z,82.09
2023-11-10T18:09:27.797Z,82.03
2023-11-10T18:12:38.600Z,82.64
2023-11-10T18:15:41.808Z,82.11
2023-11-10T18:18:44.997Z,81.55
2023-11-10T18:21:48.156Z,81.97
2023-11-10T18:25:04.484Z,82.46
2023-11-10T18:28:07.530Z,82.48
2023-11-10T18:31:10.530Z,81.71
2023-11-10T18:34:14.754Z,82.57
2023-11-10T18:37:18.151Z,83.05
2023-11-10T18:40:22.042Z,83.19
2023-11-10T18:43:25.927Z,82.51
2023-11-10T18:46:31.449Z,82.72
2023-11-10T18:49:34.518Z,82.41
2023-11-10T18:52:37.500Z,83.02
2023-11-10T18:55:40.651Z,82.69
2023-11-10T18:58:43.598Z,83.57
2023-11-10T19:01:46.691Z,83.88
2023-11-10T19:04:51.072Z,83.84
2023-11-10T19:07:54.128Z,82.32
2023-11-10T19:10:57.054Z,82.32
2023-11-10T19:14:01.304Z,83.11
2023-11-10T19:17:05.840Z,83.00
2023-11-10T19:20:09.109Z,83.26
2023-11-10T19:23:11.999Z,84.05
2023-11-10T19:26:15.880Z,83.33
2023-11-10T19:29:18.739Z,83.44
2023-11-10T19:32:22.560Z,84.26
2023-11-10T19:35:26.008Z,83.60
2023-11-10T19:38:28.849Z,82.34
2023-11-10T19:41:32.845Z,83.09
2023-11-10T19:44:37.151Z,83.67
2023-11-10T19:47:40.383Z,84.18
2023-11-10T19:50:43.297Z,84.20
2023-11-10T19:54:56.547Z,84.62
2023-11-10T19:57:11.030Z,83.97
2023-11-10T20:03:21.583Z,84.66
2023-11-10T20:06:24.722Z,84.31
2023-11-10T20:09:28.748Z,84.10
2023-11-10T20:12:32.758Z,84.29
2023-11-10T20:15:36.659Z,84.85
2023-11-10T20:18:39.829Z,83.83
2023-11-10T20:21:42.926Z,83.72
2023-11-10T20:24:46.466Z,84.83
2023-11-10T20:27:49.607Z,84.70
2023-11-10T20:30:53.010Z,84.49
2023-11-10T20:33:57.463Z,85.18
2023-11-10T20:37:02.944Z,85.04
2023-11-10T20:40:11.042Z,84.85
2023-11-10T20:43:17.133Z,85.31
2023-11-10T20:46:20.808Z,85.87
2023-11-10T20:49:39.622Z,85.18
2023-11-10T20:52:45.079Z,84.62
2023-11-10T20:55:47.965Z,85.12
2023-11-10T20:59:21.901Z,85.71
2023-11-10T21:02:24.892Z,85.19
2023-11-10T21:05:27.845Z,83.84
2023-11-10T21:08:30.797Z,83.91
2023-11-10T21:11:33.967Z,85.12
2023-11-10T21:14:37.003Z,85.46
2023-11-10T21:17:40.240Z,85.49
2023-11-10T21:20:46.494Z,85.10
2023-11-10T21:23:50.035Z,85.31
2023-11-10T21:26:52.988Z,84.55
2023-11-10T21:29:55.973Z,85.34
2023-11-10T21:33:00.434Z,85.33
2023-11-10T21:36:04.081Z,85.19
2023-11-10T21:39:12.306Z,84.87
2023-11-10T21:42:15.402Z,85.44
2023-11-10T21:45:19.407Z,86.12
2023-11-10T21:48:22.616Z,86.09
2023-11-10T21:51:25.744Z,85.13
2023-11-10T21:54:30.081Z,85.49
2023-11-10T21:57:33.170Z,85.59
2023-11-10T22:00:36.507Z,85.43
2023-11-10T22:03:42.334Z,85.33
2023-11-10T22:06:45.875Z,85.15
2023-11-10T22:09:49.158Z,84.93
2023-11-10T22:12:54.403Z,85.15
2023-11-10T22:15:57.567Z,84.75
2023-11-10T22:19:00.502Z,84.65
2023-11-10T22:22:04.824Z,84.81
2023-11-10T22:25:11.860Z,84.76
2023-11-10T22:28:21.109Z,84.69
2023-11-10T22:31:24.095Z,84.77
2023-11-10T22:34:27.882Z,84.63
2023-11-10T22:37:32.634Z,84.96
2023-11-10T22:40:37.167Z,85.03
2023-11-10T22:43:40.887Z,84.94
2023-11-10T22:46:44.793Z,84.21
2023-11-10T22:49:48.652Z,83.52
2023-11-10T22:52:52.488Z,84.30
2023-11-10T22:55:55.455Z,84.85
2023-11-10T22:59:02.076Z,85.19
2023-11-10T23:02:05.921Z,84.66
2023-11-10T23:05:11.155Z,84.93
2023-11-10T23:08:14.356Z,84.49
2023-11-10T23:11:17.620Z,85.36
2023-11-10T23:14:21.536Z,85.57
2023-11-10T23:17:25.110Z,85.11
2023-11-10T23:20:34.481Z,85.67
2023-11-10T23:23:38.744Z,84.98
2023-11-10T23:26:41.699Z,86.06
2023-11-10T23:29:45.039Z,85.02
2023-11-10T23:32:49.074Z,85.44
2023-11-10T23:36:01.596Z,85.80
2023-11-10T23:39:05.010Z,85.61
2023-11-10T23:42:09.310Z,86.17
2023-11-10T23:45:12.022Z,85.98
2023-11-10T23:48:15.415Z,85.67
2023-11-10T23:51:18.248Z,86.18
2023-11-10T23:54:21.349Z,86.44
2023-11-10T23:57:24.270Z,86.47
